KOGB/OGB METAR and TAF weather

Enter ICAO airport designator
Station Type Date Time Source
KOGB METAR 2021/05/12 01:53 UTC NOAA

KOGB 120153Z AUTO 00000KT 10SM CLR 21/18 A3005 RMK AO2 SLP175 T02110183


Station Type Date Time Source
KOGB Decoded METAR 2021/05/12 01:53 UTC NOAA

ORANGEBURG MUNICIPAL AIRPORT, SC, United States (KOGB) 33-28N 080-51W 59M
May 11, 2021 - 09:53 PM EDT / 2021.05.12 0153 UTC
Wind: Calm:0
Visibility: 10 mile(s):0
Sky conditions: clear
Temperature: 70.0 F (21.1 C)
Dew Point: 64.9 F (18.3 C)
Relative Humidity: 84%
Pressure (altimeter): 30.05 in. Hg (1017 hPa)
ob: KOGB 120153Z AUTO 00000KT 10SM CLR 21/18 A3005 RMK AO2 SLP175 T02110183
cycle: 2

Station Type Date Time Source
KOGB TAF 2021/05/11 21:52 UTC NOAA

TAF
AMD KOGB 112050Z 1121/1218 VRB04KT P6SM VCSH SCT040 BKN100
FM120000 VRB03KT P6SM BKN080
FM120600 VRB03KT 4SM RA BR OVC015
FM121400 06008KT 4SM -RA BR OVC007

Example: see airport list